createdAt,value
2022-09-15T00:01:54.796Z,100.00
2022-09-15T00:04:23.880Z,100.00
2022-09-15T00:06:53.281Z,100.00
2022-09-15T00:09:22.008Z,100.00
2022-09-15T00:11:50.825Z,100.00
2022-09-15T00:14:21.121Z,100.00
2022-09-15T00:16:49.671Z,100.00
2022-09-15T00:19:18.452Z,100.00
2022-09-15T00:21:47.706Z,100.00
2022-09-15T00:24:17.363Z,100.00
2022-09-15T00:26:46.910Z,100.00
2022-09-15T00:29:16.049Z,100.00
2022-09-15T00:31:46.845Z,100.00
2022-09-15T00:34:16.804Z,100.00
2022-09-15T00:36:45.510Z,100.00
2022-09-15T00:39:16.151Z,100.00
2022-09-15T00:41:46.505Z,100.00
2022-09-15T00:44:50.322Z,100.00
2022-09-15T00:47:25.307Z,100.00
2022-09-15T00:49:59.368Z,100.00
2022-09-15T00:52:34.586Z,100.00
2022-09-15T00:55:07.459Z,100.00
2022-09-15T00:57:41.137Z,100.00
2022-09-15T01:00:13.214Z,100.00
2022-09-15T01:02:45.940Z,100.00
2022-09-15T01:05:22.918Z,100.00
2022-09-15T01:07:58.675Z,100.00
2022-09-15T01:10:33.094Z,100.00
2022-09-15T01:13:03.672Z,100.00
2022-09-15T01:15:40.504Z,100.00
2022-09-15T01:18:20.419Z,100.00
2022-09-15T01:21:29.059Z,100.00
2022-09-15T01:24:26.718Z,100.00
2022-09-15T01:27:30.432Z,100.00
2022-09-15T01:30:09.797Z,100.00
2022-09-15T01:33:06.020Z,100.00
2022-09-15T01:35:53.002Z,100.00
2022-09-15T01:38:32.675Z,100.00
2022-09-15T01:41:08.608Z,100.00
2022-09-15T01:43:43.159Z,100.00
2022-09-15T01:46:17.050Z,100.00
2022-09-15T01:48:48.210Z,100.00
2022-09-15T01:51:18.832Z,100.00
2022-09-15T01:53:49.327Z,100.00
2022-09-15T01:56:18.712Z,100.00
2022-09-15T01:58:47.504Z,100.00
2022-09-15T02:01:23.473Z,100.00
2022-09-15T02:03:56.953Z,100.00
2022-09-15T02:06:33.735Z,100.00
2022-09-15T02:09:05.319Z,100.00
2022-09-15T02:11:36.897Z,100.00
2022-09-15T02:14:13.458Z,100.00
2022-09-15T02:16:47.588Z,100.00
2022-09-15T02:19:21.632Z,100.00
2022-09-15T02:21:57.736Z,100.00
2022-09-15T02:24:34.009Z,100.00
2022-09-15T02:27:04.952Z,100.00
2022-09-15T02:29:38.072Z,100.00
2022-09-15T02:32:09.639Z,100.00
2022-09-15T02:34:42.276Z,100.00
2022-09-15T02:37:11.501Z,100.00
2022-09-15T02:39:44.646Z,100.00
2022-09-15T02:42:12.659Z,100.00
2022-09-15T02:44:41.305Z,100.00
2022-09-15T02:47:10.621Z,100.00
2022-09-15T02:49:38.491Z,100.00
2022-09-15T02:52:07.423Z,100.00
2022-09-15T02:54:35.335Z,100.00
2022-09-15T02:57:03.397Z,100.00
2022-09-15T02:59:51.564Z,100.00
2022-09-15T03:02:21.178Z,100.00
2022-09-15T03:04:49.425Z,100.00
2022-09-15T03:07:18.349Z,100.00
2022-09-15T03:09:46.585Z,100.00
2022-09-15T03:12:16.140Z,100.00
2022-09-15T03:14:44.399Z,100.00
2022-09-15T03:17:12.276Z,100.00
2022-09-15T03:19:41.931Z,100.00
2022-09-15T03:22:10.431Z,100.00
2022-09-15T03:24:39.246Z,100.00
2022-09-15T03:27:07.303Z,100.00
2022-09-15T03:29:35.219Z,100.00
2022-09-15T03:32:03.767Z,100.00
2022-09-15T03:34:31.850Z,100.00
2022-09-15T03:37:01.473Z,100.00
2022-09-15T03:39:29.519Z,100.00
2022-09-15T03:41:57.356Z,100.00
2022-09-15T03:44:25.624Z,100.00
2022-09-15T03:46:53.609Z,100.00
2022-09-15T03:49:21.694Z,100.00
2022-09-15T03:51:49.545Z,100.00
2022-09-15T03:54:19.583Z,100.00
2022-09-15T03:56:49.059Z,100.00
2022-09-15T03:59:18.875Z,100.00
2022-09-15T04:01:47.785Z,100.00
2022-09-15T04:04:16.409Z,100.00
2022-09-15T04:06:44.951Z,100.00
2022-09-15T04:09:12.955Z,100.00
2022-09-15T04:11:42.898Z,100.00
2022-09-15T04:14:10.945Z,100.00
2022-09-15T04:16:39.134Z,100.00
2022-09-15T04:19:07.535Z,100.00
2022-09-15T04:21:35.529Z,100.00
2022-09-15T04:24:04.912Z,100.00
2022-09-15T04:26:35.119Z,100.00
2022-09-15T04:29:11.933Z,100.00
2022-09-15T04:31:39.918Z,100.00
2022-09-15T04:34:07.736Z,100.00
2022-09-15T04:36:35.601Z,100.00
2022-09-15T04:39:03.602Z,100.00
2022-09-15T04:41:31.478Z,100.00
2022-09-15T04:43:59.805Z,100.00
2022-09-15T04:46:29.512Z,100.00
2022-09-15T04:48:57.835Z,100.00
2022-09-15T04:51:27.548Z,100.00
2022-09-15T04:53:55.733Z,100.00
2022-09-15T04:56:25.598Z,100.00
2022-09-15T04:58:59.543Z,100.00
2022-09-15T05:01:34.177Z,100.00
2022-09-15T05:04:03.817Z,100.00
2022-09-15T05:06:31.818Z,100.00
2022-09-15T05:08:59.954Z,100.00
2022-09-15T05:11:28.632Z,100.00
2022-09-15T05:13:56.610Z,100.00
2022-09-15T05:16:26.082Z,100.00
2022-09-15T05:18:57.538Z,100.00
2022-09-15T05:21:26.034Z,100.00
2022-09-15T05:23:54.356Z,100.00
2022-09-15T05:26:24.269Z,100.00
2022-09-15T05:28:52.700Z,100.00
2022-09-15T05:31:22.612Z,100.00
2022-09-15T05:33:53.044Z,100.00
2022-09-15T05:36:25.140Z,100.00
2022-09-15T05:38:56.526Z,100.00
2022-09-15T05:41:25.174Z,100.00
2022-09-15T05:43:54.432Z,100.00
2022-09-15T05:46:22.556Z,100.00
2022-09-15T05:48:50.719Z,100.00
2022-09-15T05:51:18.641Z,100.00
2022-09-15T05:53:47.952Z,100.00
2022-09-15T05:56:17.480Z,100.00
2022-09-15T05:58:47.667Z,100.00
2022-09-15T06:01:16.492Z,100.00
2022-09-15T06:03:44.990Z,100.00
2022-09-15T06:06:13.247Z,100.00
2022-09-15T06:08:44.403Z,100.00
2022-09-15T06:11:16.230Z,100.00
2022-09-15T06:13:45.109Z,100.00
2022-09-15T06:16:14.257Z,100.00
2022-09-15T06:18:43.026Z,100.00
2022-09-15T06:21:13.504Z,100.00
2022-09-15T06:23:44.119Z,100.00
2022-09-15T06:26:19.612Z,100.00
2022-09-15T06:28:50.343Z,100.00
2022-09-15T06:31:18.537Z,100.00
2022-09-15T06:33:48.634Z,100.00
2022-09-15T06:36:17.096Z,100.00
2022-09-15T06:38:46.825Z,100.00
2022-09-15T06:41:16.917Z,100.00
2022-09-15T06:43:45.686Z,100.00
2022-09-15T06:46:15.877Z,100.00
2022-09-15T06:48:48.122Z,100.00
2022-09-15T06:51:18.747Z,100.00
2022-09-15T06:53:47.356Z,100.00
2022-09-15T06:56:18.407Z,100.00
2022-09-15T06:58:48.983Z,100.00
2022-09-15T07:01:21.880Z,100.00
2022-09-15T07:03:50.519Z,100.00
2022-09-15T07:06:19.051Z,100.00
2022-09-15T07:08:47.960Z,100.00
2022-09-15T07:11:18.583Z,100.00
2022-09-15T07:13:47.099Z,100.00
2022-09-15T07:16:16.155Z,100.00
2022-09-15T07:18:44.816Z,100.00
2022-09-15T07:21:14.827Z,100.00
2022-09-15T07:23:43.605Z,100.00
2022-09-15T07:26:13.113Z,100.00
2022-09-15T07:28:45.661Z,100.00
2022-09-15T07:31:16.075Z,100.00
2022-09-15T07:33:44.232Z,100.00
2022-09-15T07:36:12.519Z,100.00
2022-09-15T07:38:42.879Z,100.00
2022-09-15T07:41:11.339Z,100.00
2022-09-15T07:43:39.580Z,100.00
2022-09-15T07:46:09.105Z,100.00
2022-09-15T07:48:37.214Z,100.00
2022-09-15T07:51:05.235Z,100.00
2022-09-15T07:53:33.130Z,100.00
2022-09-15T07:56:01.114Z,100.00
2022-09-15T07:58:29.214Z,100.00
2022-09-15T08:01:03.337Z,100.00
2022-09-15T08:03:33.245Z,100.00
2022-09-15T08:06:01.537Z,100.00
2022-09-15T08:08:30.474Z,100.00
2022-09-15T08:10:58.513Z,100.00
2022-09-15T08:13:26.440Z,100.00
2022-09-15T08:15:54.506Z,100.00
2022-09-15T08:18:22.691Z,100.00
2022-09-15T08:20:52.104Z,100.00
2022-09-15T08:23:19.936Z,100.00
2022-09-15T08:25:48.199Z,100.00
2022-09-15T08:28:16.088Z,100.00
2022-09-15T08:30:44.079Z,100.00
2022-09-15T08:33:12.001Z,100.00
2022-09-15T08:35:39.901Z,100.00
2022-09-15T08:38:09.189Z,100.00
2022-09-15T08:40:38.885Z,100.00
2022-09-15T08:43:17.028Z,100.00
2022-09-15T08:45:50.681Z,100.00
2022-09-15T08:48:22.647Z,100.00
2022-09-15T08:50:53.103Z,100.00
2022-09-15T08:53:27.230Z,100.00
2022-09-15T08:55:56.835Z,100.00
2022-09-15T08:58:26.983Z,100.00
2022-09-15T09:01:03.501Z,100.00
2022-09-15T09:04:06.683Z,100.00
2022-09-15T09:06:44.718Z,99.32
2022-09-15T09:09:25.679Z,98.71
2022-09-15T09:12:18.127Z,97.63
2022-09-15T09:14:59.904Z,99.16
2022-09-15T09:17:46.706Z,99.74
2022-09-15T09:20:33.732Z,97.02
2022-09-15T09:23:08.923Z,97.20
2022-09-15T09:25:38.779Z,94.19
2022-09-15T09:28:12.730Z,96.37
2022-09-15T09:30:41.740Z,98.96
2022-09-15T09:33:30.494Z,98.87
2022-09-15T09:36:01.280Z,94.14
2022-09-15T09:38:33.092Z,93.85
2022-09-15T09:41:03.476Z,93.87
2022-09-15T09:43:33.852Z,92.85
2022-09-15T09:46:02.540Z,92.53
2022-09-15T09:48:31.291Z,92.96
2022-09-15T09:50:59.298Z,90.93
2022-09-15T09:53:31.133Z,93.58
2022-09-15T09:56:24.661Z,88.73
2022-09-15T09:58:53.356Z,87.46
2022-09-15T10:01:23.999Z,85.65
2022-09-15T10:04:12.646Z,83.69
2022-09-15T10:06:45.462Z,86.00
2022-09-15T10:09:17.648Z,84.18
2022-09-15T10:11:50.110Z,84.00
2022-09-15T10:14:22.026Z,81.17
2022-09-15T10:17:01.933Z,77.48
2022-09-15T10:19:32.334Z,79.26
2022-09-15T10:22:01.967Z,77.53
2022-09-15T10:24:34.997Z,77.83
2022-09-15T10:27:19.865Z,76.71
2022-09-15T10:29:48.895Z,77.44
2022-09-15T10:32:24.312Z,75.83
2022-09-15T10:35:04.812Z,76.33
2022-09-15T10:37:44.864Z,77.02
2022-09-15T10:40:34.141Z,76.35
2022-09-15T10:43:22.569Z,77.68
2022-09-15T10:45:57.301Z,77.50
2022-09-15T10:48:49.339Z,76.63
2022-09-15T10:51:30.378Z,77.55
2022-09-15T10:54:21.088Z,75.94
2022-09-15T10:56:53.183Z,78.60
2022-09-15T10:59:39.239Z,76.94
2022-09-15T11:02:30.430Z,77.42
2022-09-15T11:05:20.530Z,76.54
2022-09-15T11:08:14.267Z,75.98
2022-09-15T11:10:50.508Z,78.08
2022-09-15T11:13:30.514Z,75.91
2022-09-15T11:16:09.646Z,75.64
2022-09-15T11:19:00.391Z,76.45
2022-09-15T11:21:33.885Z,77.37
2022-09-15T11:24:28.648Z,74.90
2022-09-15T11:27:01.851Z,74.59
2022-09-15T11:29:35.001Z,74.05
2022-09-15T11:32:11.086Z,75.92
2022-09-15T11:34:45.926Z,76.54
2022-09-15T11:37:18.453Z,74.80
2022-09-15T11:39:51.510Z,73.42
2022-09-15T11:42:26.330Z,71.24
2022-09-15T11:44:57.343Z,70.59
2022-09-15T11:47:32.840Z,69.81
2022-09-15T11:50:07.376Z,68.60
2022-09-15T11:52:47.864Z,68.52
2022-09-15T11:55:24.363Z,67.75
2022-09-15T11:57:58.305Z,67.07
2022-09-15T12:00:26.371Z,67.86
2022-09-15T12:03:11.619Z,63.81
2022-09-15T12:05:44.438Z,66.37
2022-09-15T12:08:20.345Z,70.26
2022-09-15T12:10:53.270Z,70.65
2022-09-15T12:13:23.060Z,69.05
2022-09-15T12:15:52.433Z,70.52
2022-09-15T12:18:46.765Z,72.25
2022-09-15T12:21:20.850Z,69.95
2022-09-15T12:23:57.588Z,69.58
2022-09-15T12:26:28.831Z,66.89
2022-09-15T12:29:02.346Z,66.42
2022-09-15T12:31:38.346Z,65.65
2022-09-15T12:34:38.337Z,67.00
2022-09-15T12:37:12.778Z,66.86
2022-09-15T12:39:43.090Z,66.56
2022-09-15T12:42:18.626Z,63.75
2022-09-15T12:44:51.756Z,63.93
2022-09-15T12:47:25.501Z,62.97
2022-09-15T12:49:58.985Z,65.55
2022-09-15T12:52:27.542Z,62.22
2022-09-15T12:55:01.094Z,63.38
2022-09-15T12:57:31.975Z,62.47
2022-09-15T13:00:28.864Z,61.87
2022-09-15T13:02:58.114Z,60.37
2022-09-15T13:06:18.296Z,62.59
2022-09-15T13:08:52.905Z,61.63
2022-09-15T13:11:26.960Z,61.53
2022-09-15T13:14:07.834Z,61.32
2022-09-15T13:16:45.727Z,62.12
2022-09-15T13:19:18.318Z,59.68
2022-09-15T13:21:53.763Z,60.55
2022-09-15T13:24:30.991Z,60.81
2022-09-15T13:26:59.546Z,61.10
2022-09-15T13:29:32.191Z,60.88
2022-09-15T13:32:10.199Z,60.23
2022-09-15T13:35:20.711Z,59.48
2022-09-15T13:38:22.992Z,60.32
2022-09-15T13:41:20.919Z,59.63
2022-09-15T13:44:07.953Z,58.53
2022-09-15T13:46:50.118Z,59.97
2022-09-15T13:49:46.098Z,58.19
2022-09-15T13:52:26.298Z,59.69
2022-09-15T13:55:18.720Z,58.60
2022-09-15T14:00:55.276Z,57.96
2022-09-15T14:03:28.229Z,59.15
2022-09-15T14:05:57.585Z,61.37
2022-09-15T14:08:28.457Z,61.93
2022-09-15T14:10:59.469Z,64.30
2022-09-15T14:13:30.654Z,64.74
2022-09-15T14:16:00.965Z,64.87
2022-09-15T14:18:29.675Z,68.33
2022-09-15T14:21:02.895Z,68.53
2022-09-15T14:23:32.654Z,67.70
2022-09-15T14:26:02.419Z,68.56
2022-09-15T14:28:33.931Z,69.45
2022-09-15T14:31:03.235Z,70.18
2022-09-15T14:33:38.088Z,66.78
2022-09-15T14:36:23.455Z,68.47
2022-09-15T14:39:17.875Z,70.09
2022-09-15T14:41:46.604Z,69.52
2022-09-15T14:47:20.529Z,69.21
2022-09-15T14:49:48.916Z,69.88
2022-09-15T14:52:29.872Z,69.89
2022-09-15T14:55:02.914Z,70.01
2022-09-15T14:57:36.807Z,70.71
2022-09-15T15:00:11.353Z,68.84
2022-09-15T15:02:54.168Z,70.25
2022-09-15T15:05:26.099Z,70.85
2022-09-15T15:07:55.721Z,70.18
2022-09-15T15:10:27.993Z,71.52
2022-09-15T15:13:01.639Z,70.26
2022-09-15T15:15:33.135Z,70.59
2022-09-15T15:18:01.527Z,69.59
2022-09-15T15:20:31.404Z,70.48
2022-09-15T15:23:13.822Z,71.43
2022-09-15T15:25:43.092Z,70.68
2022-09-15T15:28:32.825Z,73.97
2022-09-15T15:31:13.691Z,71.24
2022-09-15T15:33:48.086Z,70.65
2022-09-15T15:36:16.476Z,71.91
2022-09-15T15:38:50.704Z,72.25
2022-09-15T15:41:22.819Z,73.79
2022-09-15T15:44:03.403Z,73.19
2022-09-15T15:46:53.423Z,73.81
2022-09-15T15:49:25.779Z,75.98
2022-09-15T15:51:55.295Z,77.80
2022-09-15T15:54:23.906Z,74.39
2022-09-15T15:56:52.309Z,76.29
2022-09-15T15:59:20.700Z,75.78
2022-09-15T16:01:52.912Z,78.56
2022-09-15T16:04:21.295Z,78.69
2022-09-15T16:06:49.579Z,81.14
2022-09-15T16:09:19.373Z,78.71
2022-09-15T16:11:47.878Z,79.99
2022-09-15T16:14:15.999Z,80.59
2022-09-15T16:16:44.675Z,81.94
2022-09-15T16:19:14.249Z,82.08
2022-09-15T16:21:44.014Z,83.31
2022-09-15T16:24:14.685Z,84.57
2022-09-15T16:26:43.108Z,81.44
2022-09-15T16:29:11.655Z,81.46
2022-09-15T16:31:40.502Z,81.90
2022-09-15T16:34:10.975Z,82.04
2022-09-15T16:36:40.475Z,83.12
2022-09-15T16:39:08.382Z,85.37
2022-09-15T16:41:39.279Z,83.75
2022-09-15T16:44:15.603Z,81.59
2022-09-15T16:46:43.653Z,81.82
2022-09-15T16:49:11.630Z,83.67
2022-09-15T16:51:41.301Z,83.07
2022-09-15T16:54:16.314Z,86.88
2022-09-15T16:56:45.253Z,89.16
2022-09-15T16:59:13.412Z,88.35
2022-09-15T17:01:41.542Z,88.72
2022-09-15T17:04:13.875Z,88.57
2022-09-15T17:06:43.194Z,85.09
2022-09-15T17:09:11.115Z,83.33
2022-09-15T17:11:39.180Z,82.24
2022-09-15T17:14:07.492Z,82.19
2022-09-15T17:16:35.901Z,82.99
2022-09-15T17:19:03.890Z,84.25
2022-09-15T17:21:32.290Z,84.16
2022-09-15T17:24:01.651Z,84.03
2022-09-15T17:26:31.686Z,86.41
2022-09-15T17:28:59.947Z,88.22
2022-09-15T17:31:28.213Z,90.90
2022-09-15T17:33:56.375Z,87.83
2022-09-15T17:36:24.363Z,88.13
2022-09-15T17:38:52.709Z,88.44
2022-09-15T17:41:23.012Z,88.66
2022-09-15T17:43:51.361Z,84.28
2022-09-15T17:46:20.502Z,84.71
2022-09-15T17:48:48.429Z,83.25
2022-09-15T17:51:18.418Z,82.95
2022-09-15T17:53:47.659Z,82.19
2022-09-15T17:56:15.658Z,83.65
2022-09-15T17:58:45.587Z,83.72
2022-09-15T18:01:15.285Z,84.10
2022-09-15T18:03:44.764Z,85.44
2022-09-15T18:06:13.405Z,86.75
2022-09-15T18:08:41.386Z,88.40
2022-09-15T18:11:09.549Z,90.05
2022-09-15T18:13:37.942Z,90.82
2022-09-15T18:16:12.246Z,90.31
2022-09-15T18:18:41.134Z,89.64
2022-09-15T18:21:12.263Z,89.68
2022-09-15T18:23:42.432Z,89.77
2022-09-15T18:26:10.273Z,89.66
2022-09-15T18:28:38.339Z,89.47
2022-09-15T18:31:08.083Z,90.58
2022-09-15T18:33:36.143Z,89.02
2022-09-15T18:36:07.369Z,87.69
2022-09-15T18:38:35.463Z,88.29
2022-09-15T18:41:04.565Z,88.42
2022-09-15T18:43:32.476Z,88.04
2022-09-15T18:46:01.022Z,88.36
2022-09-15T18:48:30.624Z,88.96
2022-09-15T18:50:58.699Z,88.92
2022-09-15T18:53:26.673Z,89.02
2022-09-15T18:55:54.716Z,89.35
2022-09-15T18:58:22.718Z,88.60
2022-09-15T19:00:50.729Z,89.34
2022-09-15T19:03:18.808Z,89.68
2022-09-15T19:05:48.611Z,91.82
2022-09-15T19:08:17.018Z,92.88
2022-09-15T19:10:45.055Z,93.45
2022-09-15T19:13:14.297Z,94.88
2022-09-15T19:15:44.086Z,95.93
2022-09-15T19:18:12.286Z,96.63
2022-09-15T19:20:40.856Z,93.78
2022-09-15T19:23:11.071Z,91.58
2022-09-15T19:25:41.581Z,93.79
2022-09-15T19:28:09.747Z,92.52
2022-09-15T19:30:37.805Z,93.06
2022-09-15T19:33:06.001Z,94.33
2022-09-15T19:35:34.130Z,94.71
2022-09-15T19:38:02.696Z,94.97
2022-09-15T19:40:32.181Z,93.85
2022-09-15T19:43:00.693Z,92.38
2022-09-15T19:45:28.791Z,93.21
2022-09-15T19:47:57.119Z,96.91
2022-09-15T19:50:27.940Z,96.10
2022-09-15T19:52:58.965Z,95.87
2022-09-15T19:55:28.944Z,94.21
2022-09-15T19:57:58.362Z,95.42
2022-09-15T20:00:26.541Z,94.69
2022-09-15T20:02:54.564Z,93.53
2022-09-15T20:05:22.906Z,94.90
2022-09-15T20:07:50.936Z,93.46
2022-09-15T20:10:19.042Z,95.79
2022-09-15T20:12:47.035Z,97.01
2022-09-15T20:15:16.497Z,98.24
2022-09-15T20:17:44.568Z,100.00
2022-09-15T20:20:12.671Z,97.94
2022-09-15T20:22:40.745Z,95.96
2022-09-15T20:25:09.168Z,96.99
2022-09-15T20:27:37.084Z,97.61
2022-09-15T20:30:06.285Z,95.96
2022-09-15T20:32:35.575Z,96.13
2022-09-15T20:35:04.530Z,93.56
2022-09-15T20:37:37.276Z,93.35
2022-09-15T20:40:06.795Z,92.97
2022-09-15T20:42:34.756Z,91.80
2022-09-15T20:45:03.074Z,91.82
2022-09-15T20:47:31.354Z,91.58
2022-09-15T20:50:00.787Z,91.83
2022-09-15T20:52:35.869Z,93.01
2022-09-15T20:55:06.773Z,91.31
2022-09-15T20:57:34.921Z,90.46
2022-09-15T21:00:04.771Z,91.39
2022-09-15T21:02:33.191Z,92.89
2022-09-15T21:05:02.653Z,91.09
2022-09-15T21:07:30.770Z,91.37
2022-09-15T21:09:58.737Z,92.04
2022-09-15T21:12:26.828Z,89.78
2022-09-15T21:14:55.404Z,89.84
2022-09-15T21:17:23.554Z,89.11
2022-09-15T21:19:51.455Z,88.33
2022-09-15T21:22:20.731Z,88.91
2022-09-15T21:24:48.611Z,88.86
2022-09-15T21:27:28.811Z,89.19
2022-09-15T21:29:56.722Z,89.08
2022-09-15T21:32:25.263Z,89.68
2022-09-15T21:34:55.808Z,90.38
2022-09-15T21:37:27.041Z,91.56
2022-09-15T21:39:54.977Z,91.03
2022-09-15T21:42:23.054Z,91.80
2022-09-15T21:44:50.928Z,91.74
2022-09-15T21:47:19.526Z,93.30
2022-09-15T21:49:47.520Z,91.81
2022-09-15T21:52:15.735Z,91.62
2022-09-15T21:54:45.476Z,91.98
2022-09-15T21:57:15.468Z,92.58
2022-09-15T21:59:43.484Z,93.28
2022-09-15T22:02:12.107Z,91.82
2022-09-15T22:04:41.056Z,92.27
2022-09-15T22:07:11.099Z,93.09
2022-09-15T22:09:39.677Z,94.57
2022-09-15T22:12:09.676Z,93.40
2022-09-15T22:14:37.622Z,92.65
2022-09-15T22:17:05.488Z,94.50
2022-09-15T22:19:33.354Z,94.88
2022-09-15T22:22:01.310Z,95.10
2022-09-15T22:24:29.216Z,95.96
2022-09-15T22:26:57.326Z,94.63
2022-09-15T22:29:26.675Z,95.13
2022-09-15T22:31:54.665Z,96.19
2022-09-15T22:34:22.631Z,95.22
2022-09-15T22:36:50.598Z,94.91
2022-09-15T22:39:18.478Z,96.71
2022-09-15T22:41:46.390Z,96.42
2022-09-15T22:44:19.689Z,95.57
2022-09-15T22:46:51.545Z,96.03
2022-09-15T22:49:19.810Z,98.35
2022-09-15T22:51:47.647Z,98.23
2022-09-15T22:54:16.040Z,98.00
2022-09-15T22:56:43.943Z,96.80
2022-09-15T22:59:11.890Z,96.90
2022-09-15T23:01:39.810Z,96.69
2022-09-15T23:04:09.133Z,97.26
2022-09-15T23:06:37.130Z,98.30
2022-09-15T23:09:08.865Z,97.45
2022-09-15T23:11:39.659Z,96.39
2022-09-15T23:14:08.704Z,96.01
2022-09-15T23:16:36.728Z,96.39
2022-09-15T23:19:05.271Z,95.97
2022-09-15T23:21:34.799Z,97.03
2022-09-15T23:24:03.302Z,96.29
2022-09-15T23:26:31.500Z,95.71
2022-09-15T23:28:59.448Z,95.72
2022-09-15T23:31:27.505Z,95.61
2022-09-15T23:33:55.474Z,96.70
2022-09-15T23:36:23.583Z,96.04
2022-09-15T23:38:53.019Z,96.32
2022-09-15T23:41:21.260Z,97.21
2022-09-15T23:43:49.273Z,95.99
2022-09-15T23:46:17.434Z,97.28
2022-09-15T23:48:45.414Z,97.50
2022-09-15T23:51:13.305Z,97.10
2022-09-15T23:53:41.404Z,98.01
2022-09-15T23:56:10.757Z,97.69
2022-09-15T23:58:39.559Z,98.07
